Terminal Aerodrome Forecast
Issued by NWS Nashville, TN

Home | Current Version | Previous Version | Text Only | Print | Product List | Glossary On
Versions: 1 2 3 4 5 6 7 8 9 10 11 12 13 14 15 16 17 18 19 20 21
000
FTUS44 KOHX 260520
TAFBNA
TAF
KBNA 260520Z 2606/2706 VRB03KT P6SM VCSH SCT070 OVC100
     FM261000 03003KT 5SM -SHRA BR SCT025 BKN070
     FM261600 08006KT 4SM -SHRA BR BKN025 OVC060=

USA.gov is the U.S. government's official web portal to all federal, state and local government web resources and services.